Time;durP1;ratioP1;P1;durP2;ratioP2;P2;SDS_P1;SDS_P2;PMS_P1;PMS_P2;Temp;Humidity;BMP_temperature;BMP_pressure;BME280_temperature;BME280_humidity;BME280_pressure;Samples;Min_cycle;Max_cycle;Signal;HPM_P1;HPM_P2
2023/04/26 00:01:44;;;;;;;1.75;1.48;;;9.10;93.00;;;;;;5053033;28;20267;-75
2023/04/26 00:04:11;;;;;;;6.10;2.50;;;9.10;93.00;;;;;;5051842;28;20259;-75
2023/04/26 00:06:41;;;;;;;4.30;1.73;;;9.10;93.10;;;;;;5055529;28;20228;-75
2023/04/26 00:09:44;;;;;;;4.68;1.60;;;9.10;93.20;;;;;;5071823;28;20299;-76
2023/04/26 00:12:11;;;;;;;2.20;1.85;;;9.10;93.20;;;;;;5033201;28;20224;-77
2023/04/26 00:14:39;;;;;;;6.22;1.95;;;9.10;93.20;;;;;;5056643;28;20246;-76
2023/04/26 00:17:06;;;;;;;4.43;1.95;;;9.00;93.30;;;;;;5072033;28;20251;-75
2023/04/26 00:19:33;;;;;;;3.33;1.70;;;9.00;93.40;;;;;;5071848;28;20224;-76
2023/04/26 00:22:07;;;;;;;8.57;2.40;;;9.00;93.50;;;;;;5073394;28;20605;-76
2023/04/26 00:24:34;;;;;;;3.55;1.77;;;9.00;93.50;;;;;;5071735;28;20236;-75
2023/04/26 00:27:04;;;;;;;8.32;1.92;;;9.00;93.60;;;;;;5072084;28;20228;-76
2023/04/26 00:29:31;;;;;;;5.15;2.15;;;9.00;93.60;;;;;;5075734;28;20239;-76
2023/04/26 00:31:58;;;;;;;3.75;2.05;;;8.90;93.70;;;;;;5076556;28;20345;-75
2023/04/26 00:34:25;;;;;;;6.95;2.10;;;8.90;94.20;;;;;;5075533;28;20248;-75
2023/04/26 00:36:52;;;;;;;5.32;1.73;;;8.90;93.90;;;;;;5076113;28;20677;-75
2023/04/26 00:39:21;;;;;;;1.90;1.50;;;8.90;94.00;;;;;;5075574;28;20228;-77
2023/04/26 00:41:50;;;;;;;4.25;2.05;;;8.90;94.10;;;;;;5076352;28;20228;-76
2023/04/26 00:44:17;;;;;;;3.90;2.10;;;8.90;94.10;;;;;;5075759;28;20377;-76
2023/04/26 00:46:44;;;;;;;2.63;1.70;;;8.80;94.40;;;;;;5076143;28;20224;-76
2023/04/26 00:49:16;;;;;;;3.83;2.05;;;8.80;94.50;;;;;;5076481;28;20224;-77
2023/04/26 00:51:43;;;;;;;5.57;2.03;;;8.80;94.60;;;;;;5075079;28;20318;-77
2023/04/26 00:54:10;;;;;;;4.72;2.10;;;8.80;94.60;;;;;;5076284;28;20316;-76
2023/04/26 00:56:39;;;;;;;7.70;2.55;;;8.80;94.70;;;;;;5075374;28;20762;-77
2023/04/26 00:59:07;;;;;;;3.85;2.05;;;8.80;94.70;;;;;;5075871;28;20519;-76
2023/04/26 01:01:34;;;;;;;3.25;1.90;;;8.70;94.80;;;;;;5074155;28;20311;-77
2023/04/26 01:04:02;;;;;;;2.63;2.10;;;8.70;95.00;;;;;;5075522;28;20231;-76
2023/04/26 01:06:34;;;;;;;7.35;2.05;;;8.60;95.00;;;;;;5074521;28;20247;-77
2023/04/26 01:09:03;;;;;;;4.55;1.88;;;8.60;95.20;;;;;;5075979;28;20239;-76
2023/04/26 01:11:32;;;;;;;3.75;1.90;;;8.60;95.30;;;;;;5074669;28;20220;-77
2023/04/26 01:14:00;;;;;;;4.20;1.85;;;8.60;95.40;;;;;;5075325;28;20220;-77
2023/04/26 01:16:30;;;;;;;6.28;2.85;;;8.60;95.50;;;;;;5075360;28;20285;-76
2023/04/26 01:18:58;;;;;;;4.28;1.70;;;8.50;95.60;;;;;;5075218;28;20246;-76
2023/04/26 01:21:25;;;;;;;5.53;2.05;;;8.50;95.70;;;;;;5075445;28;20220;-77
2023/04/26 01:23:54;;;;;;;4.45;1.58;;;8.50;95.90;;;;;;5074019;28;20231;-76
2023/04/26 01:26:21;;;;;;;4.45;2.10;;;8.50;96.00;;;;;;5074957;28;20220;-76
2023/04/26 01:28:49;;;;;;;4.55;1.65;;;8.40;96.10;;;;;;5074548;28;20220;-76
2023/04/26 01:31:16;;;;;;;3.97;2.00;;;8.40;96.30;;;;;;5075412;28;20220;-76
2023/04/26 01:33:43;;;;;;;4.45;2.05;;;8.40;96.30;;;;;;5074477;28;20231;-77
2023/04/26 01:36:10;;;;;;;2.70;1.50;;;8.40;96.40;;;;;;5074588;28;20231;-76
2023/04/26 01:38:37;;;;;;;3.15;1.88;;;8.40;96.40;;;;;;5073991;28;20576;-76
2023/04/26 01:41:06;;;;;;;9.02;2.53;;;8.40;96.60;;;;;;5075290;28;20293;-76
2023/04/26 01:43:34;;;;;;;10.05;2.15;;;8.30;96.80;;;;;;5075028;28;20228;-77
2023/04/26 01:46:01;;;;;;;2.85;1.70;;;8.30;96.90;;;;;;5074707;28;20228;-76
2023/04/26 01:48:28;;;;;;;2.60;1.85;;;8.20;97.10;;;;;;5074858;28;20228;-76
2023/04/26 01:50:55;;;;;;;3.33;2.00;;;8.20;97.20;;;;;;5074695;28;20303;-76
2023/04/26 01:53:22;;;;;;;4.60;1.67;;;8.20;97.30;;;;;;5075390;28;20597;-75
2023/04/26 01:55:49;;;;;;;8.77;2.22;;;8.20;97.30;;;;;;5073930;28;20224;-76
2023/04/26 01:58:23;;;;;;;7.18;2.40;;;8.20;97.40;;;;;;5074625;28;20224;-76
2023/04/26 02:00:50;;;;;;;6.50;2.35;;;8.20;97.60;;;;;;5074603;28;20242;-76
2023/04/26 02:03:17;;;;;;;4.25;1.88;;;8.20;97.70;;;;;;5074970;28;20278;-76
2023/04/26 02:05:44;;;;;;;4.50;2.30;;;8.20;97.80;;;;;;5073871;28;20316;-77
2023/04/26 02:08:11;;;;;;;5.63;2.15;;;8.20;97.80;;;;;;5074815;28;20231;-77
2023/04/26 02:10:38;;;;;;;4.70;2.35;;;8.20;98.00;;;;;;5074658;28;20232;-76
2023/04/26 02:13:08;;;;;;;5.40;1.80;;;8.20;98.20;;;;;;5074464;28;20240;-76
2023/04/26 02:15:37;;;;;;;4.10;1.90;;;8.10;98.20;;;;;;5074448;28;20674;-76
2023/04/26 02:18:05;;;;;;;6.25;2.50;;;8.10;98.30;;;;;;5073724;28;20234;-76
2023/04/26 02:20:35;;;;;;;5.40;2.60;;;8.10;98.40;;;;;;5074605;28;20227;-77
2023/04/26 02:23:02;;;;;;;3.85;2.08;;;8.10;98.50;;;;;;5074636;28;20285;-76
2023/04/26 02:25:29;;;;;;;5.97;2.28;;;8.10;98.60;;;;;;5074712;28;20274;-76
2023/04/26 02:27:56;;;;;;;3.72;2.10;;;8.10;98.70;;;;;;5074122;28;20227;-76
2023/04/26 02:30:23;;;;;;;8.07;2.70;;;8.10;98.80;;;;;;5074692;28;20823;-76
2023/04/26 02:32:53;;;;;;;7.63;2.50;;;8.00;98.80;;;;;;5074075;28;20233;-77
2023/04/26 02:35:20;;;;;;;4.22;2.10;;;8.10;99.00;;;;;;5075113;28;20681;-77
2023/04/26 02:37:48;;;;;;;5.70;2.20;;;8.00;99.10;;;;;;5073981;28;20232;-77
2023/04/26 02:40:16;;;;;;;6.18;3.25;;;8.00;99.10;;;;;;5074571;28;20277;-76
2023/04/26 02:42:43;;;;;;;3.70;2.17;;;8.00;99.30;;;;;;5074204;28;20223;-76
2023/04/26 02:45:10;;;;;;;7.15;2.20;;;8.00;99.40;;;;;;5073947;28;20637;-76
2023/04/26 02:47:37;;;;;;;8.80;2.38;;;8.00;99.40;;;;;;5073995;28;20584;-76
2023/04/26 02:50:07;;;;;;;6.22;2.28;;;7.90;99.60;;;;;;5072557;28;20339;-77
2023/04/26 02:52:35;;;;;;;5.63;1.70;;;7.90;99.70;;;;;;5053640;28;20231;-76
2023/04/26 02:55:03;;;;;;;6.45;2.10;;;7.90;99.90;;;;;;5043016;28;20225;-76
2023/04/26 02:57:30;;;;;;;9.25;2.83;;;7.90;99.90;;;;;;5053583;28;20221;-77
2023/04/26 02:59:57;;;;;;;2.80;1.70;;;7.80;99.90;;;;;;5053005;28;20228;-77
2023/04/26 03:02:30;;;;;;;5.18;1.90;;;7.80;99.90;;;;;;5053988;28;20299;-76
2023/04/26 03:04:57;;;;;;;6.45;1.92;;;7.80;99.90;;;;;;5052896;28;20232;-77
2023/04/26 03:07:25;;;;;;;3.15;1.73;;;7.80;99.90;;;;;;5062751;28;20568;-78
2023/04/26 03:09:52;;;;;;;10.35;2.45;;;7.80;99.90;;;;;;5063895;28;20235;-78
2023/04/26 03:12:20;;;;;;;7.60;2.42;;;7.80;99.90;;;;;;5069454;28;20223;-78
2023/04/26 03:14:47;;;;;;;3.53;2.03;;;7.80;99.90;;;;;;5073166;28;20283;-77
2023/04/26 03:17:31;;;;;;;4.45;2.30;;;7.80;99.90;;;;;;5072785;28;20231;-78
2023/04/26 03:20:01;;;;;;;5.63;2.17;;;7.70;99.90;;;;;;5052825;28;20658;-78
2023/04/26 03:22:29;;;;;;;5.93;2.50;;;7.70;99.90;;;;;;5072697;28;20227;-77
2023/04/26 03:24:56;;;;;;;3.05;2.40;;;7.70;99.90;;;;;;5072867;28;20285;-77
2023/04/26 03:27:23;;;;;;;4.07;2.40;;;7.70;99.90;;;;;;5072813;28;20602;-76
2023/04/26 03:29:50;;;;;;;4.82;2.38;;;7.70;99.90;;;;;;5073720;28;20243;-78
2023/04/26 03:32:17;;;;;;;8.95;2.47;;;7.60;99.90;;;;;;5072783;28;20216;-77
2023/04/26 03:34:46;;;;;;;9.73;4.65;;;7.70;99.90;;;;;;5072487;28;20254;-78
2023/04/26 03:37:14;;;;;;;6.63;2.72;;;7.70;99.90;;;;;;5072188;28;20227;-77
2023/04/26 03:39:42;;;;;;;6.82;2.60;;;7.70;99.90;;;;;;5073036;28;20222;-77
2023/04/26 03:42:09;;;;;;;5.43;3.10;;;7.70;99.90;;;;;;5070977;28;20228;-77
2023/04/26 03:44:36;;;;;;;4.70;2.75;;;7.70;99.90;;;;;;5072986;28;20277;-78
2023/04/26 03:47:04;;;;;;;7.22;2.75;;;7.70;99.90;;;;;;5071864;28;20228;-77
2023/04/26 03:49:31;;;;;;;9.07;2.80;;;7.70;99.90;;;;;;5066449;28;20470;-77
2023/04/26 03:51:58;;;;;;;12.07;3.58;;;7.70;99.90;;;;;;5071253;28;20243;-78
2023/04/26 03:54:25;;;;;;;4.40;2.17;;;7.60;99.90;;;;;;5070840;28;20216;-76
2023/04/26 03:56:53;;;;;;;7.63;3.00;;;7.60;99.90;;;;;;5070883;28;20231;-78
2023/04/26 03:59:23;;;;;;;9.18;2.97;;;7.70;99.90;;;;;;5070288;28;20259;-77
2023/04/26 04:01:50;;;;;;;4.80;2.92;;;7.60;99.90;;;;;;5071677;28;20361;-77
2023/04/26 04:04:17;;;;;;;6.03;3.00;;;7.60;99.90;;;;;;5071919;28;20607;-77
2023/04/26 04:06:45;;;;;;;7.80;3.13;;;7.60;99.90;;;;;;5072786;28;20263;-78
2023/04/26 04:09:15;;;;;;;4.93;3.65;;;7.60;99.90;;;;;;5069943;28;20227;-77
2023/04/26 04:11:42;;;;;;;4.80;2.60;;;7.60;99.90;;;;;;5072346;28;20224;-78
2023/04/26 04:14:11;;;;;;;4.70;2.42;;;7.60;99.90;;;;;;5072102;28;20307;-76
2023/04/26 04:16:38;;;;;;;5.03;3.00;;;7.60;99.90;;;;;;5072173;28;20232;-76
2023/04/26 04:19:05;;;;;;;6.60;2.25;;;7.60;99.90;;;;;;5071496;28;20273;-76
2023/04/26 04:21:32;;;;;;;3.75;2.20;;;7.60;99.90;;;;;;5072791;28;20215;-77
2023/04/26 04:23:59;;;;;;;5.60;2.20;;;7.60;99.90;;;;;;5072860;28;20224;-77
2023/04/26 04:26:27;;;;;;;6.70;2.20;;;7.60;99.90;;;;;;5072166;28;20251;-76
2023/04/26 04:28:54;;;;;;;5.65;2.30;;;7.60;99.90;;;;;;5072814;28;20285;-76
2023/04/26 04:31:23;;;;;;;11.38;2.90;;;7.60;99.90;;;;;;5071958;28;20298;-78
2023/04/26 04:33:50;;;;;;;6.78;2.40;;;7.60;99.90;;;;;;5072578;28;20915;-78
2023/04/26 04:36:17;;;;;;;4.10;2.75;;;7.50;99.90;;;;;;5072089;28;20311;-76
2023/04/26 04:38:45;;;;;;;8.27;3.28;;;7.60;99.90;;;;;;5054705;28;20216;-76
2023/04/26 04:41:12;;;;;;;8.35;3.20;;;7.60;99.90;;;;;;5072836;28;20224;-78
2023/04/26 04:43:39;;;;;;;6.55;3.30;;;7.60;99.90;;;;;;5073351;28;20222;-76
2023/04/26 04:46:06;;;;;;;7.63;2.88;;;7.50;99.90;;;;;;5072222;28;20224;-76
2023/04/26 04:48:39;;;;;;;6.38;3.50;;;7.60;99.90;;;;;;5062802;28;20243;-76
2023/04/26 04:51:06;;;;;;;5.70;2.50;;;7.50;99.90;;;;;;5072575;28;20220;-78
2023/04/26 04:53:34;;;;;;;6.82;2.65;;;7.60;99.90;;;;;;5072449;28;20251;-77
2023/04/26 04:56:01;;;;;;;6.25;2.40;;;7.60;99.90;;;;;;5071378;28;20323;-77
2023/04/26 04:58:29;;;;;;;7.03;4.13;;;7.60;99.90;;;;;;5072377;28;20662;-76
2023/04/26 05:00:56;;;;;;;8.30;3.15;;;7.70;99.90;;;;;;5071524;28;20219;-77
2023/04/26 05:03:23;;;;;;;4.00;2.90;;;7.70;99.90;;;;;;5072137;28;20220;-76
2023/04/26 05:05:52;;;;;;;7.57;3.85;;;7.70;99.90;;;;;;5072260;28;20232;-78
2023/04/26 05:08:20;;;;;;;8.38;2.95;;;7.80;99.90;;;;;;5071723;28;20278;-77
2023/04/26 05:10:47;;;;;;;3.28;2.75;;;7.80;99.90;;;;;;5071871;28;20289;-76
2023/04/26 05:13:14;;;;;;;5.05;2.70;;;7.80;99.90;;;;;;5071489;28;20240;-76
2023/04/26 05:15:41;;;;;;;7.38;3.42;;;7.80;99.90;;;;;;5075212;28;20224;-77
2023/04/26 05:18:08;;;;;;;9.15;3.55;;;7.90;99.90;;;;;;5075002;28;20232;-76
2023/04/26 05:20:35;;;;;;;4.38;2.90;;;7.90;99.90;;;;;;5075594;28;20220;-76
2023/04/26 05:23:04;;;;;;;8.48;3.08;;;7.90;99.90;;;;;;5074752;28;20499;-76
2023/04/26 05:25:30;;;;;;;5.13;2.58;;;7.80;99.90;;;;;;5074549;28;20223;-77
2023/04/26 05:27:57;;;;;;;3.67;2.25;;;7.90;99.90;;;;;;5074777;28;20289;-78
2023/04/26 05:30:25;;;;;;;4.35;3.28;;;7.90;99.90;;;;;;5075295;28;20281;-76
2023/04/26 05:32:52;;;;;;;6.70;3.03;;;8.00;99.90;;;;;;5075958;28;20616;-77
2023/04/26 05:35:19;;;;;;;7.45;3.80;;;8.00;99.90;;;;;;5075088;28;20311;-77
2023/04/26 05:37:48;;;;;;;5.78;3.97;;;8.00;99.90;;;;;;5075778;28;20228;-76
2023/04/26 05:40:17;;;;;;;5.28;3.28;;;8.10;99.90;;;;;;5074369;28;20220;-76
2023/04/26 05:42:44;;;;;;;6.63;3.55;;;8.10;99.90;;;;;;5075167;28;20681;-76
2023/04/26 05:45:11;;;;;;;8.07;4.88;;;8.10;99.90;;;;;;5073457;28;20232;-76
2023/04/26 05:47:38;;;;;;;9.52;3.40;;;8.20;99.90;;;;;;5074263;28;20216;-76
2023/04/26 05:50:07;;;;;;;8.93;3.53;;;8.20;99.90;;;;;;5074676;28;20232;-78
2023/04/26 05:52:34;;;;;;;5.25;3.15;;;8.20;99.90;;;;;;5074832;28;20236;-78
2023/04/26 05:55:08;;;;;;;4.85;3.47;;;8.30;99.90;;;;;;5074678;28;20235;-77
2023/04/26 05:57:36;;;;;;;4.93;3.97;;;8.30;99.90;;;;;;5074357;28;20254;-78
2023/04/26 06:00:10;;;;;;;5.50;2.85;;;8.30;99.90;;;;;;5074395;28;20539;-78
2023/04/26 06:02:37;;;;;;;3.63;2.63;;;8.40;99.90;;;;;;5074733;28;20224;-76
2023/04/26 06:05:05;;;;;;;10.52;3.95;;;8.40;99.90;;;;;;5074307;28;20715;-77
2023/04/26 06:07:32;;;;;;;4.00;3.20;;;8.40;99.90;;;;;;5074500;28;20258;-76
2023/04/26 06:10:01;;;;;;;6.20;3.40;;;8.50;99.90;;;;;;5074294;28;20313;-77
2023/04/26 06:12:30;;;;;;;5.20;3.25;;;8.50;99.90;;;;;;5073788;28;20220;-76
2023/04/26 06:14:58;;;;;;;7.32;4.05;;;8.60;99.90;;;;;;5074429;28;20232;-77
2023/04/26 06:17:30;;;;;;;6.18;3.40;;;8.60;99.90;;;;;;5073341;28;20220;-76
2023/04/26 06:20:00;;;;;;;7.65;3.92;;;8.70;99.90;;;;;;5074156;28;20558;-75
2023/04/26 06:22:27;;;;;;;5.35;2.88;;;8.80;99.90;;;;;;5073516;28;20238;-75
2023/04/26 06:24:54;;;;;;;7.47;3.40;;;8.80;99.90;;;;;;5074449;28;20243;-75
2023/04/26 06:27:21;;;;;;;5.93;2.70;;;8.90;99.90;;;;;;5067124;28;20220;-76
2023/04/26 06:29:49;;;;;;;3.63;2.63;;;8.90;99.90;;;;;;5073280;28;20681;-76
2023/04/26 06:32:17;;;;;;;6.70;3.80;;;9.00;99.90;;;;;;5073710;28;20224;-76
2023/04/26 06:34:44;;;;;;;9.65;3.33;;;9.00;99.90;;;;;;5074067;28;20283;-76
2023/04/26 06:37:11;;;;;;;13.10;3.60;;;9.10;99.90;;;;;;5074055;28;20577;-76
2023/04/26 06:42:19;;;;;;;5.30;2.72;;;9.20;99.90;;;;;;5065344;28;20217;-77
2023/04/26 06:44:46;;;;;;;7.35;3.35;;;9.30;99.90;;;;;;5074333;28;20254;-77
2023/04/26 06:47:21;;;;;;;5.00;2.38;;;9.30;99.90;;;;;;5073475;28;20228;-78
2023/04/26 06:49:48;;;;;;;6.75;3.92;;;9.40;99.90;;;;;;5067276;28;20563;-77
2023/04/26 06:52:15;;;;;;;7.18;2.50;;;9.40;99.90;;;;;;5053331;28;20221;-77
2023/04/26 06:54:42;;;;;;;5.05;2.90;;;9.50;99.90;;;;;;5044563;28;20252;-77
2023/04/26 06:57:16;;;;;;;6.72;3.47;;;9.50;99.90;;;;;;5052911;28;20276;-76
2023/04/26 06:59:44;;;;;;;4.22;2.75;;;9.60;99.90;;;;;;5054601;28;20220;-77
2023/04/26 07:02:11;;;;;;;7.28;3.00;;;9.70;99.90;;;;;;5073193;28;20652;-77
2023/04/26 07:04:39;;;;;;;8.50;3.53;;;9.70;99.90;;;;;;5072263;28;20220;-75
2023/04/26 07:07:10;;;;;;;5.00;2.97;;;9.80;99.90;;;;;;5073437;28;20228;-77
2023/04/26 07:09:37;;;;;;;5.45;2.63;;;9.90;99.90;;;;;;5072426;28;20229;-75
2023/04/26 07:12:07;;;;;;;4.53;2.28;;;9.90;99.90;;;;;;5072969;28;20700;-76
2023/04/26 07:14:39;;;;;;;8.70;3.10;;;10.00;99.60;;;;;;5072061;28;20638;-77
2023/04/26 07:17:06;;;;;;;3.85;2.60;;;10.10;99.40;;;;;;5072485;28;20575;-75
2023/04/26 07:19:36;;;;;;;5.40;2.38;;;10.20;99.20;;;;;;5072378;28;20232;-76
2023/04/26 07:22:05;;;;;;;5.95;3.58;;;10.20;99.00;;;;;;5073447;28;20289;-77
2023/04/26 07:24:36;;;;;;;7.63;3.92;;;10.30;98.90;;;;;;5069345;28;20223;-77
2023/04/26 07:27:03;;;;;;;6.45;3.00;;;10.30;98.80;;;;;;5061079;28;20247;-77
2023/04/26 07:29:30;;;;;;;5.20;3.67;;;10.40;98.90;;;;;;5071728;28;20234;-77
2023/04/26 07:32:01;;;;;;;5.47;2.92;;;10.50;98.90;;;;;;5072672;28;20228;-77
2023/04/26 07:34:28;;;;;;;6.15;3.05;;;10.60;98.80;;;;;;5071397;28;20223;-77
2023/04/26 07:36:55;;;;;;;7.53;4.63;;;10.60;98.10;;;;;;5072453;28;20577;-77
2023/04/26 07:39:26;;;;;;;6.22;2.70;;;10.70;97.70;;;;;;5069398;28;20669;-76
2023/04/26 07:41:54;;;;;;;9.27;4.05;;;10.70;97.40;;;;;;5071884;28;20220;-76
2023/04/26 07:44:21;;;;;;;4.40;2.97;;;10.80;97.20;;;;;;5072110;28;20215;-76
2023/04/26 07:46:51;;;;;;;4.45;2.60;;;10.80;97.30;;;;;;5071786;28;20220;-76
2023/04/26 07:49:21;;;;;;;5.88;3.08;;;10.90;97.00;;;;;;5072378;28;20693;-76
2023/04/26 07:51:51;;;;;;;6.07;3.28;;;11.00;96.80;;;;;;5071356;28;20542;-76
2023/04/26 07:54:21;;;;;;;4.40;2.95;;;11.00;96.50;;;;;;5063353;28;20220;-78
2023/04/26 07:56:49;;;;;;;4.43;2.80;;;11.10;96.60;;;;;;5071917;28;20257;-77
2023/04/26 07:59:18;;;;;;;12.70;3.80;;;11.10;96.60;;;;;;5072639;28;20230;-77
2023/04/26 08:01:45;;;;;;;4.38;2.67;;;11.20;96.50;;;;;;5071410;28;20251;-76
2023/04/26 08:04:12;;;;;;;6.38;2.13;;;11.20;95.90;;;;;;5071705;28;20654;-76
2023/04/26 08:06:43;;;;;;;5.35;2.60;;;11.30;95.20;;;;;;5071696;28;20281;-77
2023/04/26 08:09:11;;;;;;;3.30;2.55;;;11.50;95.00;;;;;;5072084;28;20285;-77
2023/04/26 08:11:39;;;;;;;5.47;2.13;;;11.50;95.00;;;;;;5072049;28;20216;-75
2023/04/26 08:14:12;;;;;;;3.75;2.05;;;11.50;94.20;;;;;;5069536;28;20571;-76
2023/04/26 08:16:40;;;;;;;6.78;2.78;;;11.50;94.30;;;;;;5070295;28;20265;-78
2023/04/26 08:19:07;;;;;;;3.22;2.40;;;11.50;94.50;;;;;;5069547;28;20234;-77
2023/04/26 08:21:45;;;;;;;8.20;3.28;;;11.60;94.40;;;;;;5072544;28;20303;-77
2023/04/26 08:24:12;;;;;;;3.58;2.30;;;11.60;94.20;;;;;;5072738;28;20227;-76
2023/04/26 08:26:40;;;;;;;2.25;2.05;;;11.50;93.70;;;;;;5072459;28;20548;-78
2023/04/26 08:29:07;;;;;;;9.68;5.45;;;11.60;93.70;;;;;;5072441;28;20224;-77
2023/04/26 08:31:36;;;;;;;3.78;2.28;;;11.60;93.40;;;;;;5072725;28;20224;-76
2023/04/26 08:34:05;;;;;;;3.20;2.90;;;11.60;93.10;;;;;;5075069;28;20223;-76
2023/04/26 08:36:35;;;;;;;3.35;2.00;;;11.60;92.40;;;;;;5056744;28;20225;-76
2023/04/26 08:39:03;;;;;;;7.30;2.05;;;11.70;92.00;;;;;;5052130;28;20221;-77
2023/04/26 08:41:43;;;;;;;4.80;2.53;;;11.70;92.10;;;;;;5052346;28;20224;-77
2023/04/26 08:44:12;;;;;;;5.90;2.25;;;11.80;92.50;;;;;;5040684;28;20232;-76
2023/04/26 08:47:01;;;;;;;6.72;2.60;;;11.80;93.20;;;;;;5046917;28;20245;-76
2023/04/26 08:49:39;;;;;;;7.30;3.80;;;11.80;93.70;;;;;;5073134;28;20220;-75
2023/04/26 08:52:09;;;;;;;4.20;3.50;;;11.90;93.90;;;;;;5075590;28;20601;-76
2023/04/26 08:54:38;;;;;;;6.75;3.63;;;12.00;93.80;;;;;;5076631;28;20285;-77
2023/04/26 08:57:07;;;;;;;5.25;3.35;;;12.00;93.30;;;;;;5078661;28;20281;-75
2023/04/26 08:59:37;;;;;;;3.33;2.13;;;12.00;92.90;;;;;;5075370;28;20558;-77
2023/04/26 09:02:10;;;;;;;4.28;2.40;;;12.00;92.00;;;;;;5061989;28;20251;-76
2023/04/26 09:04:38;;;;;;;4.15;2.78;;;12.00;91.40;;;;;;5063956;28;20250;-75
2023/04/26 09:07:09;;;;;;;8.40;3.38;;;11.90;90.80;;;;;;5075880;28;20255;-75
2023/04/26 09:09:39;;;;;;;3.60;2.00;;;11.90;90.70;;;;;;5068855;28;20315;-75
2023/04/26 09:12:06;;;;;;;3.65;3.20;;;11.90;90.50;;;;;;5055899;28;20224;-75
2023/04/26 09:14:33;;;;;;;3.10;2.00;;;11.90;90.40;;;;;;5058680;28;22663;-75
2023/04/26 09:17:00;;;;;;;8.30;3.20;;;11.90;90.00;;;;;;5057302;28;20704;-75
2023/04/26 09:19:41;;;;;;;5.05;2.00;;;11.90;88.80;;;;;;5053309;28;20239;-75
2023/04/26 09:22:09;;;;;;;4.65;2.00;;;11.90;88.70;;;;;;5066723;28;20227;-76
2023/04/26 09:24:49;;;;;;;5.40;2.70;;;11.80;89.00;;;;;;5072725;28;20312;-76
2023/04/26 09:27:16;;;;;;;5.57;3.45;;;11.80;88.20;;;;;;5053335;28;20319;-75
2023/04/26 09:29:58;;;;;;;3.05;2.17;;;11.90;88.80;;;;;;5053243;28;20347;-75
2023/04/26 09:32:26;;;;;;;7.10;3.95;;;12.00;89.00;;;;;;5053057;28;20232;-76
2023/04/26 09:34:54;;;;;;;5.15;2.83;;;12.00;88.70;;;;;;5081154;28;20785;-77
2023/04/26 09:37:21;;;;;;;5.68;2.30;;;12.00;88.90;;;;;;5095359;28;20235;-75
2023/04/26 09:39:49;;;;;;;2.72;2.28;;;12.00;89.50;;;;;;5095718;28;20223;-75
2023/04/26 09:42:20;;;;;;;7.72;2.40;;;12.00;90.00;;;;;;5096601;28;20227;-76
2023/04/26 09:44:47;;;;;;;28.02;18.92;;;12.10;90.20;;;;;;5097469;28;20227;-76
2023/04/26 09:47:15;;;;;;;4.53;3.08;;;12.10;89.80;;;;;;5096648;28;20235;-76
2023/04/26 09:49:50;;;;;;;5.63;5.05;;;12.20;89.80;;;;;;5095859;28;20242;-76
2023/04/26 09:52:24;;;;;;;5.72;3.88;;;12.20;89.50;;;;;;5080437;28;20230;-75
2023/04/26 09:54:53;;;;;;;8.70;2.95;;;12.20;89.50;;;;;;5074784;28;20223;-74
2023/04/26 09:57:22;;;;;;;5.35;2.67;;;12.20;88.60;;;;;;5075363;28;20306;-75
2023/04/26 09:59:51;;;;;;;6.90;3.28;;;12.30;87.60;;;;;;5073756;28;20231;-75
2023/04/26 10:02:20;;;;;;;7.57;2.75;;;12.30;86.20;;;;;;5075122;28;20216;-76
2023/04/26 10:04:49;;;;;;;2.35;2.00;;;12.30;85.90;;;;;;5074690;28;23050;-77
2023/04/26 10:07:18;;;;;;;4.93;3.05;;;12.30;85.20;;;;;;5074761;28;20327;-75
2023/04/26 10:09:49;;;;;;;7.70;3.40;;;12.30;85.20;;;;;;5074123;28;20246;-76
2023/04/26 10:12:17;;;;;;;4.65;3.53;;;12.30;85.30;;;;;;5074585;28;20220;-76
2023/04/26 10:14:48;;;;;;;3.72;3.33;;;12.30;85.20;;;;;;5074040;28;20216;-76
2023/04/26 10:17:15;;;;;;;4.90;3.28;;;12.30;85.20;;;;;;5063605;28;20281;-75
2023/04/26 10:19:44;;;;;;;9.10;4.00;;;12.40;84.80;;;;;;5073631;28;20658;-75
2023/04/26 10:22:16;;;;;;;4.38;2.40;;;12.40;83.90;;;;;;5074464;28;20243;-75
2023/04/26 10:24:45;;;;;;;6.38;2.17;;;12.40;82.40;;;;;;5073628;28;20615;-75
2023/04/26 10:27:51;;;;;;;4.18;2.60;;;12.40;81.70;;;;;;5074582;28;20650;-76
2023/04/26 10:30:20;;;;;;;10.43;4.20;;;12.40;82.10;;;;;;5074679;28;20220;-75
2023/04/26 10:33:18;;;;;;;4.32;2.38;;;12.30;83.00;;;;;;5074891;28;20681;-75
2023/04/26 10:36:15;;;;;;;5.43;4.35;;;12.30;83.70;;;;;;5091979;28;20247;-76
2023/04/26 10:39:21;;;;;;;5.22;3.75;;;12.20;84.30;;;;;;5072535;28;20261;-75
2023/04/26 10:41:49;;;;;;;3.83;3.00;;;12.10;85.60;;;;;;5070407;28;20227;-75
2023/04/26 10:44:39;;;;;;;7.18;5.00;;;12.10;86.00;;;;;;5074393;28;20246;-76
2023/04/26 10:47:09;;;;;;;7.97;5.63;;;12.00;86.60;;;;;;5074551;28;20254;-76
2023/04/26 10:49:47;;;;;;;8.43;4.32;;;12.00;86.90;;;;;;5074672;28;20300;-77
2023/04/26 10:52:18;;;;;;;6.40;4.22;;;12.10;86.80;;;;;;5073473;28;20231;-75
2023/04/26 10:54:53;;;;;;;5.78;3.67;;;12.10;86.50;;;;;;5066898;28;20248;-76
2023/04/26 10:57:22;;;;;;;4.78;3.85;;;12.10;86.00;;;;;;5073485;28;20261;-75
2023/04/26 11:00:35;;;;;;;6.72;3.60;;;12.10;85.90;;;;;;5074056;28;20319;-75
2023/04/26 11:03:11;;;;;;;5.10;3.40;;;12.20;85.90;;;;;;5053211;28;20220;-77
2023/04/26 11:05:54;;;;;;;4.32;3.22;;;12.30;84.40;;;;;;5053762;28;20535;-77
2023/04/26 11:08:26;;;;;;;2.72;2.47;;;12.30;84.00;;;;;;5053304;28;20267;-75
2023/04/26 11:10:59;;;;;;;5.72;3.65;;;12.30;82.80;;;;;;5052523;28;20224;-75
2023/04/26 11:13:29;;;;;;;6.43;3.30;;;12.40;82.20;;;;;;5053122;28;20221;-75
2023/04/26 11:16:02;;;;;;;4.80;4.30;;;12.40;81.90;;;;;;5043247;28;20231;-75
2023/04/26 11:18:30;;;;;;;4.30;3.22;;;12.50;81.20;;;;;;5052488;28;20221;-75
2023/04/26 11:21:03;;;;;;;2.72;2.53;;;12.50;80.70;;;;;;5053980;28;20228;-75
2023/04/26 11:23:43;;;;;;;4.55;3.03;;;12.60;80.50;;;;;;5045178;28;20714;-75
2023/04/26 11:26:10;;;;;;;5.15;3.50;;;12.60;80.10;;;;;;5081628;28;20219;-77
2023/04/26 11:28:39;;;;;;;5.85;2.92;;;12.60;79.50;;;;;;5095626;28;20233;-77
2023/04/26 11:31:10;;;;;;;4.70;2.90;;;12.60;79.60;;;;;;5095277;28;20227;-77
2023/04/26 11:33:39;;;;;;;10.15;4.45;;;12.70;78.80;;;;;;5094222;28;20227;-77
2023/04/26 11:38:50;;;;;;;9.18;4.07;;;12.80;78.40;;;;;;5086346;28;20671;-77
2023/04/26 11:41:17;;;;;;;5.25;4.43;;;12.80;77.90;;;;;;5043238;28;20623;-75
2023/04/26 11:43:49;;;;;;;3.80;3.47;;;12.90;78.20;;;;;;5054211;28;20236;-77
2023/04/26 11:46:24;;;;;;;5.32;2.90;;;12.90;77.20;;;;;;5071372;28;20567;-75
2023/04/26 11:48:55;;;;;;;6.90;4.72;;;12.90;77.20;;;;;;5073557;28;20243;-75
2023/04/26 11:51:22;;;;;;;4.72;3.30;;;12.90;76.90;;;;;;5072608;28;20219;-75
2023/04/26 11:53:51;;;;;;;4.80;3.42;;;12.90;76.20;;;;;;5055382;28;20224;-75
2023/04/26 11:56:20;;;;;;;5.72;2.83;;;12.90;76.00;;;;;;5052256;28;21655;-76
2023/04/26 11:58:50;;;;;;;4.65;2.83;;;12.90;74.60;;;;;;5052952;28;20229;-77
2023/04/26 12:01:22;;;;;;;6.75;5.60;;;12.90;73.90;;;;;;5051752;28;20239;-77
2023/04/26 12:03:53;;;;;;;7.55;4.20;;;12.90;72.70;;;;;;5052616;28;20307;-77
2023/04/26 12:06:23;;;;;;;10.70;4.95;;;12.90;72.80;;;;;;5052091;28;20308;-77
2023/04/26 12:08:51;;;;;;;13.43;8.60;;;13.00;72.80;;;;;;5052388;28;20228;-77
2023/04/26 12:11:18;;;;;;;6.93;3.60;;;13.00;74.20;;;;;;5052171;28;20225;-76
2023/04/26 12:13:49;;;;;;;7.07;3.75;;;13.00;74.10;;;;;;5052402;28;20269;-76
2023/04/26 12:16:22;;;;;;;6.35;5.13;;;13.00;74.70;;;;;;5040845;28;20224;-75
2023/04/26 12:18:52;;;;;;;3.97;3.13;;;13.00;74.60;;;;;;5041702;28;20570;-76
2023/04/26 12:21:20;;;;;;;7.82;3.90;;;13.00;74.90;;;;;;5039901;28;20224;-76
2023/04/26 12:24:01;;;;;;;5.43;4.13;;;13.10;75.20;;;;;;5054640;28;20240;-76
2023/04/26 12:26:49;;;;;;;5.93;3.47;;;13.20;75.60;;;;;;5087326;28;20227;-77
2023/04/26 12:29:17;;;;;;;4.82;3.78;;;13.20;75.70;;;;;;5070109;28;20216;-77
2023/04/26 12:31:51;;;;;;;4.68;4.20;;;13.30;75.80;;;;;;5067531;28;20237;-76
2023/04/26 12:34:18;;;;;;;4.78;3.05;;;13.30;76.00;;;;;;5076128;28;20283;-75
2023/04/26 12:36:45;;;;;;;10.15;4.50;;;13.40;76.40;;;;;;5077031;28;20234;-74
2023/04/26 12:39:14;;;;;;;7.53;4.13;;;13.40;76.30;;;;;;5057620;28;20228;-76
2023/04/26 12:41:41;;;;;;;8.70;5.40;;;13.40;76.60;;;;;;5068210;28;20248;-75
2023/04/26 12:44:09;;;;;;;8.87;3.57;;;13.30;76.90;;;;;;5070858;28;20239;-76
2023/04/26 12:46:36;;;;;;;5.72;3.83;;;13.30;77.20;;;;;;5075551;28;20462;-76
2023/04/26 12:49:05;;;;;;;10.30;5.05;;;13.20;76.90;;;;;;5080283;28;20242;-75
2023/04/26 12:51:34;;;;;;;7.47;5.60;;;13.20;76.90;;;;;;5074082;28;20288;-76
2023/04/26 12:54:01;;;;;;;9.15;7.80;;;13.20;77.30;;;;;;5086277;28;20223;-77
2023/04/26 12:56:33;;;;;;;6.57;4.25;;;13.20;78.00;;;;;;5082390;28;20262;-75
2023/04/26 12:59:01;;;;;;;5.82;3.65;;;13.20;78.20;;;;;;5089152;28;20224;-75
2023/04/26 13:01:28;;;;;;;16.80;11.15;;;13.30;77.60;;;;;;5080681;28;20204;-77
2023/04/26 13:03:55;;;;;;;8.18;4.10;;;13.40;77.10;;;;;;5092195;28;20227;-76
2023/04/26 13:06:24;;;;;;;4.30;3.35;;;13.50;74.90;;;;;;5080629;28;20259;-76
2023/04/26 13:08:51;;;;;;;7.30;5.47;;;13.50;74.20;;;;;;5082790;28;20250;-76
2023/04/26 13:11:21;;;;;;;4.15;3.75;;;13.50;74.50;;;;;;5088890;28;20466;-76